createdAt,value
2017-12-23T00:01:53.324Z,36.33
2017-12-23T00:04:28.222Z,37.87
2017-12-23T00:07:03.362Z,36.47
2017-12-23T00:09:38.377Z,39.17
2017-12-23T00:12:13.285Z,35.17
2017-12-23T00:14:48.300Z,37.80
2017-12-23T00:17:23.191Z,36.40
2017-12-23T00:19:58.284Z,38.90
2017-12-23T00:22:33.191Z,40.80
2017-12-23T00:25:08.109Z,43.47
2017-12-23T00:27:42.924Z,44.60
2017-12-23T00:30:17.730Z,35.67
2017-12-23T00:32:52.562Z,42.80
2017-12-23T00:35:27.469Z,40.77
2017-12-23T00:38:02.422Z,38.03
2017-12-23T00:40:37.603Z,41.43
2017-12-23T00:43:12.701Z,40.97
2017-12-23T00:45:47.832Z,41.63
2017-12-23T00:48:23.065Z,41.80
2017-12-23T00:50:58.121Z,50.97
2017-12-23T00:53:33.241Z,41.43
2017-12-23T00:56:08.454Z,43.20
2017-12-23T00:58:43.552Z,45.03
2017-12-23T01:01:18.598Z,48.33
2017-12-23T01:03:53.651Z,44.40
2017-12-23T01:06:28.448Z,50.90
2017-12-23T01:09:03.144Z,34.77
2017-12-23T01:11:38.437Z,49.93
2017-12-23T01:14:13.149Z,54.87
2017-12-23T01:16:48.218Z,52.30
2017-12-23T01:19:23.029Z,61.17
2017-12-23T01:21:58.137Z,59.93
2017-12-23T01:24:33.242Z,52.17
2017-12-23T01:27:08.145Z,54.70
2017-12-23T01:29:43.053Z,54.17
2017-12-23T01:32:17.996Z,56.80
2017-12-23T01:34:53.033Z,38.20
2017-12-23T01:37:27.939Z,46.07
2017-12-23T01:40:02.849Z,47.20
2017-12-23T01:42:37.978Z,42.33
2017-12-23T01:45:12.820Z,56.87
2017-12-23T01:47:48.048Z,56.87
2017-12-23T01:50:23.172Z,66.93
2017-12-23T01:52:57.940Z,62.93
2017-12-23T01:55:32.990Z,37.93
2017-12-23T01:58:07.795Z,70.73
2017-12-23T02:00:42.901Z,48.97
2017-12-23T02:03:17.820Z,67.00
2017-12-23T02:05:52.957Z,56.20
2017-12-23T02:08:28.058Z,64.17
2017-12-23T02:11:03.084Z,62.63
2017-12-23T02:13:38.237Z,48.07
2017-12-23T02:16:13.344Z,62.60
2017-12-23T02:18:48.469Z,60.80
2017-12-23T02:21:23.421Z,72.17
2017-12-23T02:23:58.453Z,69.97
2017-12-23T02:29:30.030Z,64.70
2017-12-23T02:32:05.144Z,58.07
2017-12-23T02:34:40.195Z,60.00
2017-12-23T02:37:15.293Z,38.00
2017-12-23T02:39:50.563Z,60.33
2017-12-23T02:42:25.341Z,60.00
2017-12-23T02:44:59.833Z,50.87
2017-12-23T02:47:34.960Z,55.93
2017-12-23T02:50:10.092Z,53.63
2017-12-23T02:52:44.991Z,63.60
2017-12-23T02:55:19.973Z,54.10
2017-12-23T02:57:55.179Z,68.53
2017-12-23T03:00:30.452Z,71.87
2017-12-23T03:03:05.458Z,61.43
2017-12-23T03:05:40.342Z,67.07
2017-12-23T03:08:15.345Z,63.03
2017-12-23T03:10:50.724Z,72.00
2017-12-23T03:13:25.850Z,67.57
2017-12-23T03:16:00.960Z,68.13
2017-12-23T03:18:36.149Z,74.80
2017-12-23T03:21:11.136Z,60.47
2017-12-23T03:23:46.262Z,70.43
2017-12-23T03:26:21.365Z,68.57
2017-12-23T03:28:58.088Z,73.77
2017-12-23T03:31:32.893Z,64.50
2017-12-23T03:34:08.221Z,69.10
2017-12-23T03:36:43.119Z,63.37
2017-12-23T03:39:18.229Z,55.93
2017-12-23T03:41:52.995Z,48.23
2017-12-23T03:44:27.980Z,58.33
2017-12-23T03:47:03.105Z,60.97
2017-12-23T03:49:38.113Z,49.57
2017-12-23T03:52:13.291Z,66.80
2017-12-23T03:54:48.593Z,45.50
2017-12-23T03:57:24.529Z,61.50
2017-12-23T03:59:59.521Z,59.20
2017-12-23T04:02:34.549Z,43.87
2017-12-23T04:05:09.372Z,55.70
2017-12-23T04:07:44.645Z,47.60
2017-12-23T04:10:19.745Z,44.93
2017-12-23T04:12:54.664Z,40.57
2017-12-23T04:15:29.781Z,40.67
2017-12-23T04:18:04.343Z,29.33
2017-12-23T04:20:39.400Z,27.67
2017-12-23T04:23:14.379Z,35.43
2017-12-23T04:25:49.557Z,26.80
2017-12-23T04:28:24.556Z,35.67
2017-12-23T04:30:59.642Z,34.87
2017-12-23T04:33:34.641Z,22.80
2017-12-23T04:36:09.801Z,29.07
2017-12-23T04:38:44.816Z,19.60
2017-12-23T04:41:19.945Z,23.13
2017-12-23T04:43:54.960Z,14.60
2017-12-23T04:46:30.252Z,28.00
2017-12-23T04:49:05.560Z,26.23
2017-12-23T04:51:40.570Z,27.07
2017-12-23T04:54:15.361Z,18.67
2017-12-23T04:56:50.344Z,23.67
2017-12-23T04:59:25.561Z,20.27
2017-12-23T05:02:00.817Z,16.80
2017-12-23T05:04:36.103Z,21.70
2017-12-23T05:07:11.096Z,12.03
2017-12-23T05:09:45.872Z,24.33
2017-12-23T05:12:21.033Z,33.30
2017-12-23T05:14:56.106Z,29.70
2017-12-23T05:17:30.989Z,32.90
2017-12-23T05:20:05.992Z,31.37
2017-12-23T05:22:41.192Z,20.23
2017-12-23T05:25:16.372Z,26.33
2017-12-23T05:27:51.352Z,30.80
2017-12-23T05:30:26.371Z,33.53
2017-12-23T05:33:01.657Z,36.87
2017-12-23T05:35:36.748Z,22.37
2017-12-23T05:38:11.817Z,38.37
2017-12-23T05:40:46.841Z,33.20
2017-12-23T05:43:21.865Z,25.23
2017-12-23T05:45:56.887Z,21.30
2017-12-23T05:48:31.875Z,34.67
2017-12-23T05:51:06.834Z,16.97
2017-12-23T05:53:41.743Z,25.90
2017-12-23T05:56:16.620Z,25.57
2017-12-23T05:58:51.720Z,20.47
2017-12-23T06:01:26.736Z,24.30
2017-12-23T06:04:01.582Z,23.53
2017-12-23T06:06:36.484Z,19.43
2017-12-23T06:09:11.511Z,18.57
2017-12-23T06:11:46.288Z,16.97
2017-12-23T06:14:21.160Z,26.83
2017-12-23T06:16:56.383Z,16.90
2017-12-23T06:19:31.360Z,25.70
2017-12-23T06:22:06.450Z,22.17
2017-12-23T06:24:41.453Z,17.00
2017-12-23T06:27:16.494Z,22.30
2017-12-23T06:29:51.316Z,13.47
2017-12-23T06:32:26.356Z,19.50
2017-12-23T06:35:01.632Z,16.27
2017-12-23T06:37:36.646Z,17.10
2017-12-23T06:40:11.521Z,12.63
2017-12-23T06:42:46.496Z,18.60
2017-12-23T06:45:21.606Z,20.87
2017-12-23T06:47:56.603Z,14.20
2017-12-23T06:50:31.789Z,11.40
2017-12-23T06:53:07.064Z,12.73
2017-12-23T06:55:42.171Z,20.00
2017-12-23T06:58:16.978Z,17.23
2017-12-23T07:00:52.179Z,14.73
2017-12-23T07:03:27.396Z,10.77
2017-12-23T07:06:02.380Z,9.77
2017-12-23T07:08:37.381Z,15.20
2017-12-23T07:11:12.561Z,13.30
2017-12-23T07:13:47.667Z,13.87
2017-12-23T07:16:22.845Z,14.13
2017-12-23T07:18:58.116Z,11.73
2017-12-23T07:21:33.204Z,7.97
2017-12-23T07:24:08.223Z,11.57
2017-12-23T07:26:43.222Z,9.43
2017-12-23T07:29:17.670Z,13.30
2017-12-23T07:31:52.969Z,13.70
2017-12-23T07:34:28.086Z,12.20
2017-12-23T07:37:03.187Z,13.07
2017-12-23T07:39:38.321Z,14.53
2017-12-23T07:42:12.689Z,13.87
2017-12-23T07:44:47.798Z,17.30
2017-12-23T07:47:22.304Z,11.60
2017-12-23T07:49:57.534Z,16.30
2017-12-23T07:52:32.638Z,14.27
2017-12-23T07:55:07.675Z,16.17
2017-12-23T07:57:42.769Z,15.77
2017-12-23T08:00:18.089Z,19.10
2017-12-23T08:02:53.190Z,15.43
2017-12-23T08:05:28.278Z,11.13
2017-12-23T08:08:03.549Z,16.87
2017-12-23T08:10:38.520Z,17.03
2017-12-23T08:13:13.698Z,16.90
2017-12-23T08:15:48.704Z,21.77
2017-12-23T08:18:23.856Z,19.10
2017-12-23T08:20:58.741Z,21.30
2017-12-23T08:23:33.535Z,18.93
2017-12-23T08:26:08.529Z,25.00
2017-12-23T08:28:43.048Z,18.30
2017-12-23T08:31:18.302Z,20.90
2017-12-23T08:33:53.203Z,15.27
2017-12-23T08:36:28.332Z,13.57
2017-12-23T08:39:03.157Z,25.13
2017-12-23T08:41:37.532Z,15.73
2017-12-23T08:44:12.701Z,23.13
2017-12-23T08:46:47.698Z,19.07
2017-12-23T08:49:22.706Z,15.17
2017-12-23T08:51:57.098Z,22.03
2017-12-23T08:54:32.366Z,19.37
2017-12-23T08:57:07.276Z,14.13
2017-12-23T08:59:42.137Z,20.70
2017-12-23T09:02:17.169Z,20.53
2017-12-23T09:04:51.989Z,19.83
2017-12-23T09:07:27.141Z,30.80
2017-12-23T09:10:02.204Z,23.87
2017-12-23T09:12:37.269Z,21.97
2017-12-23T09:15:12.145Z,20.57
2017-12-23T09:17:47.167Z,14.90
2017-12-23T09:20:21.973Z,17.93
2017-12-23T09:22:57.148Z,18.93
2017-12-23T09:25:32.151Z,15.60
2017-12-23T09:28:07.066Z,21.90
2017-12-23T09:30:42.098Z,22.20
2017-12-23T09:33:17.094Z,18.07
2017-12-23T09:35:52.075Z,16.10
2017-12-23T09:38:26.850Z,20.80
2017-12-23T09:41:02.054Z,22.70
2017-12-23T09:43:36.880Z,11.60
2017-12-23T09:46:12.152Z,9.83
2017-12-23T09:48:47.032Z,14.90
2017-12-23T09:51:22.225Z,23.90
2017-12-23T09:53:57.242Z,25.20
2017-12-23T09:56:32.289Z,32.63
2017-12-23T09:59:07.261Z,28.73
2017-12-23T10:01:42.082Z,28.30
2017-12-23T10:04:17.097Z,28.77
2017-12-23T10:06:52.185Z,36.43
2017-12-23T10:09:27.430Z,38.10
2017-12-23T10:12:02.216Z,41.47
2017-12-23T10:14:37.026Z,35.67
2017-12-23T10:17:11.427Z,39.33
2017-12-23T10:19:46.556Z,39.40
2017-12-23T10:22:21.633Z,38.20
2017-12-23T10:24:56.938Z,37.40
2017-12-23T10:27:32.019Z,21.60
2017-12-23T10:30:06.640Z,42.03
2017-12-23T10:32:49.812Z,42.30
2017-12-23T10:35:24.478Z,42.97
2017-12-23T10:37:59.548Z,42.30
2017-12-23T10:40:34.505Z,38.33
2017-12-23T10:43:09.580Z,32.60
2017-12-23T10:45:44.721Z,33.73
2017-12-23T10:48:19.816Z,25.73
2017-12-23T10:50:54.802Z,43.40
2017-12-23T10:53:30.004Z,48.40
2017-12-23T10:56:05.005Z,47.50
2017-12-23T10:58:39.881Z,48.57
2017-12-23T11:01:14.790Z,51.27
2017-12-23T11:03:49.956Z,42.80
2017-12-23T11:06:25.187Z,36.87
2017-12-23T11:09:00.094Z,54.70
2017-12-23T11:11:35.179Z,29.97
2017-12-23T11:14:10.287Z,57.77
2017-12-23T11:16:45.381Z,57.30
2017-12-23T11:19:20.401Z,55.97
2017-12-23T11:21:55.141Z,48.97
2017-12-23T11:24:30.238Z,49.87
2017-12-23T11:27:05.340Z,48.30
2017-12-23T11:29:40.094Z,41.80
2017-12-23T11:32:15.372Z,45.73
2017-12-23T11:34:50.469Z,43.50
2017-12-23T11:37:25.528Z,54.87
2017-12-23T11:40:00.303Z,47.97
2017-12-23T11:42:35.313Z,54.27
2017-12-23T11:45:10.192Z,55.40
2017-12-23T11:47:45.097Z,57.13
2017-12-23T11:50:20.066Z,60.10
2017-12-23T11:52:55.085Z,55.67
2017-12-23T11:55:30.000Z,49.77
2017-12-23T11:58:05.285Z,58.37
2017-12-23T12:00:40.180Z,35.50
2017-12-23T12:03:15.350Z,53.47
2017-12-23T12:05:50.163Z,37.23
2017-12-23T12:08:25.496Z,54.00
2017-12-23T12:11:00.582Z,53.23
2017-12-23T12:13:35.396Z,62.30
2017-12-23T12:16:10.386Z,41.63
2017-12-23T12:18:45.487Z,52.97
2017-12-23T12:21:20.361Z,60.93
2017-12-23T12:23:55.584Z,44.03
2017-12-23T12:26:30.565Z,49.43
2017-12-23T12:29:05.427Z,43.70
2017-12-23T12:31:40.732Z,31.73
2017-12-23T12:34:15.621Z,49.23
2017-12-23T12:36:50.429Z,55.90
2017-12-23T12:39:25.731Z,46.77
2017-12-23T12:42:00.756Z,38.30
2017-12-23T12:44:35.761Z,38.93
2017-12-23T12:47:10.944Z,48.03
2017-12-23T12:49:45.948Z,41.07
2017-12-23T12:52:21.016Z,48.27
2017-12-23T12:54:56.131Z,46.37
2017-12-23T12:57:31.200Z,48.73
2017-12-23T13:00:06.138Z,36.80
2017-12-23T13:02:41.032Z,37.43
2017-12-23T13:05:16.100Z,25.63
2017-12-23T13:07:51.093Z,38.03
2017-12-23T13:10:26.124Z,26.33
2017-12-23T13:13:01.001Z,38.10
2017-12-23T13:15:35.897Z,36.60
2017-12-23T13:18:10.791Z,41.47
2017-12-23T13:20:45.888Z,37.47
2017-12-23T13:23:20.717Z,36.33
2017-12-23T13:25:55.621Z,29.53
2017-12-23T13:28:30.594Z,29.40
2017-12-23T13:31:05.503Z,31.50
2017-12-23T13:33:40.664Z,27.47
2017-12-23T13:36:15.960Z,28.13
2017-12-23T13:38:51.165Z,30.43
2017-12-23T13:41:26.064Z,28.83
2017-12-23T13:44:01.045Z,22.07
2017-12-23T13:46:36.016Z,29.97
2017-12-23T13:49:11.088Z,37.10
2017-12-23T13:51:46.213Z,20.00
2017-12-23T13:54:21.122Z,27.30
2017-12-23T13:56:56.041Z,34.30
2017-12-23T13:59:31.266Z,25.87
2017-12-23T14:02:06.221Z,26.20
2017-12-23T14:04:41.236Z,23.70
2017-12-23T14:07:16.145Z,23.87
2017-12-23T14:09:51.125Z,31.20
2017-12-23T14:12:26.246Z,30.80
2017-12-23T14:15:01.249Z,26.03
2017-12-23T14:17:36.072Z,28.10
2017-12-23T14:20:11.289Z,26.30
2017-12-23T14:22:46.499Z,28.60
2017-12-23T14:25:21.411Z,25.63
2017-12-23T14:27:56.505Z,26.47
2017-12-23T14:30:31.688Z,16.33
2017-12-23T14:33:06.698Z,30.50
2017-12-23T14:35:41.577Z,33.37
2017-12-23T14:38:16.554Z,27.40
2017-12-23T14:40:51.762Z,26.13
2017-12-23T14:43:26.898Z,27.20
2017-12-23T14:46:02.525Z,29.90
2017-12-23T14:48:37.153Z,27.03
2017-12-23T14:51:12.050Z,29.97
2017-12-23T14:53:47.309Z,28.33
2017-12-23T14:59:07.289Z,29.03
2017-12-23T15:01:42.390Z,31.80
2017-12-23T15:04:17.675Z,28.53
2017-12-23T15:06:52.864Z,20.17
2017-12-23T15:09:27.877Z,21.07
2017-12-23T15:12:02.903Z,32.60
2017-12-23T15:14:37.815Z,36.77
2017-12-23T15:17:12.911Z,29.13
2017-12-23T15:19:47.984Z,33.33
2017-12-23T15:22:22.896Z,19.83
2017-12-23T15:24:57.667Z,31.33
2017-12-23T15:27:32.713Z,34.17
2017-12-23T15:30:07.596Z,30.97
2017-12-23T15:32:42.573Z,27.50
2017-12-23T15:35:17.882Z,29.80
2017-12-23T15:37:52.850Z,32.47
2017-12-23T15:40:27.756Z,39.00
2017-12-23T15:43:02.727Z,25.37
2017-12-23T15:45:37.921Z,39.33
2017-12-23T15:48:13.105Z,33.47
2017-12-23T15:50:48.193Z,29.97
2017-12-23T15:53:23.135Z,30.77
2017-12-23T15:55:58.309Z,27.80
2017-12-23T15:58:33.363Z,33.60
2017-12-23T16:01:08.403Z,21.23
2017-12-23T16:03:43.304Z,40.33
2017-12-23T16:06:18.267Z,26.73
2017-12-23T16:08:53.373Z,32.53
2017-12-23T16:11:28.453Z,39.83
2017-12-23T16:14:03.345Z,30.30
2017-12-23T16:16:38.438Z,29.00
2017-12-23T16:19:13.553Z,28.50
2017-12-23T16:21:48.476Z,28.23
2017-12-23T16:24:23.461Z,30.27
2017-12-23T16:26:57.841Z,30.03
2017-12-23T16:29:32.940Z,31.73
2017-12-23T16:32:07.915Z,30.50
2017-12-23T16:34:42.995Z,23.57
2017-12-23T16:37:17.887Z,32.23
2017-12-23T16:39:53.096Z,33.90
2017-12-23T16:42:28.160Z,22.80
2017-12-23T16:45:03.244Z,21.40
2017-12-23T16:47:38.162Z,31.60
2017-12-23T16:50:13.244Z,26.80
2017-12-23T16:52:48.080Z,23.97
2017-12-23T16:55:23.165Z,22.37
2017-12-23T16:57:58.164Z,33.30
2017-12-23T17:00:33.144Z,28.90
2017-12-23T17:03:08.143Z,37.20
2017-12-23T17:05:43.030Z,27.17
2017-12-23T17:08:18.095Z,33.17
2017-12-23T17:10:53.088Z,24.43
2017-12-23T17:13:28.167Z,33.60
2017-12-23T17:16:03.175Z,38.80
2017-12-23T17:18:37.842Z,33.63
2017-12-23T17:21:12.599Z,36.53
2017-12-23T17:23:47.892Z,22.67
2017-12-23T17:26:22.962Z,21.53
2017-12-23T17:29:08.953Z,33.40
2017-12-23T17:31:43.681Z,20.53
2017-12-23T17:34:18.805Z,34.27
2017-12-23T17:36:53.992Z,28.63
2017-12-23T17:39:29.065Z,25.40
2017-12-23T17:42:04.056Z,25.90
2017-12-23T17:44:39.249Z,32.87
2017-12-23T17:47:14.262Z,22.13
2017-12-23T17:49:49.138Z,25.43
2017-12-23T17:52:24.085Z,25.00
2017-12-23T17:54:59.376Z,27.67
2017-12-23T17:57:34.473Z,32.87
2017-12-23T18:00:09.440Z,30.77
2017-12-23T18:02:44.505Z,33.50
2017-12-23T18:05:19.273Z,26.70
2017-12-23T18:07:54.185Z,25.27
2017-12-23T18:10:29.457Z,21.27
2017-12-23T18:13:04.257Z,26.40
2017-12-23T18:15:38.700Z,31.00
2017-12-23T18:18:13.900Z,28.87
2017-12-23T18:20:49.093Z,29.47
2017-12-23T18:23:24.090Z,25.47
2017-12-23T18:25:59.073Z,25.47
2017-12-23T18:28:34.150Z,32.23
2017-12-23T18:31:09.144Z,32.17
2017-12-23T18:33:44.125Z,22.13
2017-12-23T18:36:19.110Z,46.57
2017-12-23T18:38:54.313Z,29.27
2017-12-23T18:41:29.316Z,33.00
2017-12-23T18:44:04.593Z,31.90
2017-12-23T18:46:39.511Z,33.73
2017-12-23T18:49:14.394Z,38.97
2017-12-23T18:51:49.145Z,48.87
2017-12-23T18:54:24.360Z,38.57
2017-12-23T18:56:59.338Z,36.67
2017-12-23T18:59:34.337Z,35.67
2017-12-23T19:02:09.573Z,35.63
2017-12-23T19:04:44.570Z,24.27
2017-12-23T19:07:19.772Z,38.53
2017-12-23T19:09:55.060Z,25.53
2017-12-23T19:12:29.986Z,30.77
2017-12-23T19:15:05.209Z,39.77
2017-12-23T19:17:40.117Z,37.83
2017-12-23T19:20:14.499Z,39.20
2017-12-23T19:22:49.569Z,35.27
2017-12-23T19:25:24.844Z,30.10
2017-12-23T19:27:59.876Z,40.23
2017-12-23T19:30:34.997Z,31.73
2017-12-23T19:33:09.909Z,39.93
2017-12-23T19:35:44.976Z,35.23
2017-12-23T19:38:19.980Z,39.43
2017-12-23T19:40:55.260Z,29.00
2017-12-23T19:43:30.364Z,30.37
2017-12-23T19:46:05.444Z,39.47
2017-12-23T19:48:40.503Z,37.73
2017-12-23T19:51:15.474Z,37.97
2017-12-23T19:53:50.464Z,37.77
2017-12-23T19:56:25.347Z,34.13
2017-12-23T19:59:00.222Z,37.30
2017-12-23T20:01:35.042Z,25.27
2017-12-23T20:04:10.047Z,39.20
2017-12-23T20:06:45.204Z,32.70
2017-12-23T20:09:20.494Z,31.17
2017-12-23T20:11:55.272Z,30.67
2017-12-23T20:14:30.369Z,32.93
2017-12-23T20:17:05.487Z,38.80
2017-12-23T20:19:40.279Z,36.40
2017-12-23T20:22:15.309Z,33.40
2017-12-23T20:24:50.415Z,29.17
2017-12-23T20:27:25.393Z,30.60
2017-12-23T20:30:00.419Z,30.17
2017-12-23T20:32:35.392Z,40.53
2017-12-23T20:35:10.378Z,29.37
2017-12-23T20:37:45.358Z,38.20
2017-12-23T20:40:20.363Z,33.47
2017-12-23T20:42:55.266Z,38.13
2017-12-23T20:45:30.384Z,38.07
2017-12-23T20:48:05.546Z,35.33
2017-12-23T20:50:40.440Z,23.73
2017-12-23T20:53:15.268Z,23.23
2017-12-23T20:55:50.251Z,38.97
2017-12-23T20:58:25.426Z,27.80
2017-12-23T21:01:00.308Z,38.37
2017-12-23T21:03:35.290Z,32.40
2017-12-23T21:06:10.529Z,25.07
2017-12-23T21:08:45.722Z,21.37
2017-12-23T21:11:20.919Z,27.53
2017-12-23T21:13:55.748Z,30.70
2017-12-23T21:16:30.750Z,24.93
2017-12-23T21:19:05.982Z,24.60
2017-12-23T21:21:40.716Z,31.60
2017-12-23T21:24:15.144Z,29.13
2017-12-23T21:26:50.084Z,31.00
2017-12-23T21:29:25.203Z,27.33
2017-12-23T21:32:00.334Z,33.60
2017-12-23T21:34:35.322Z,37.63
2017-12-23T21:37:10.458Z,35.90
2017-12-23T21:39:45.598Z,27.17
2017-12-23T21:42:20.401Z,23.27
2017-12-23T21:44:55.425Z,32.47
2017-12-23T21:47:30.441Z,30.97
2017-12-23T21:50:05.469Z,27.80
2017-12-23T21:52:40.704Z,25.20
2017-12-23T21:55:15.981Z,27.53
2017-12-23T21:57:51.050Z,23.43
2017-12-23T22:00:26.274Z,19.60
2017-12-23T22:03:01.177Z,22.47
2017-12-23T22:05:36.197Z,19.37
2017-12-23T22:08:11.214Z,21.27
2017-12-23T22:10:46.234Z,22.00
2017-12-23T22:13:21.214Z,19.60
2017-12-23T22:15:56.353Z,19.63
2017-12-23T22:18:31.548Z,24.20
2017-12-23T22:21:06.649Z,18.40
2017-12-23T22:23:41.854Z,24.23
2017-12-23T22:26:17.002Z,24.20
2017-12-23T22:28:51.813Z,22.47
2017-12-23T22:31:26.756Z,19.43
2017-12-23T22:34:01.721Z,22.33
2017-12-23T22:36:36.808Z,18.13
2017-12-23T22:39:12.088Z,17.23
2017-12-23T22:41:47.089Z,17.77
2017-12-23T22:44:22.006Z,17.33
2017-12-23T22:46:57.495Z,26.77
2017-12-23T22:49:32.387Z,22.90
2017-12-23T22:52:07.322Z,22.53
2017-12-23T22:54:42.321Z,18.73
2017-12-23T22:57:17.442Z,22.80
2017-12-23T22:59:52.461Z,20.83
2017-12-23T23:02:27.465Z,18.93
2017-12-23T23:05:02.369Z,22.73
2017-12-23T23:07:37.344Z,15.13
2017-12-23T23:10:12.445Z,16.00
2017-12-23T23:12:47.429Z,21.50
2017-12-23T23:15:22.325Z,15.87
2017-12-23T23:17:57.157Z,16.30
2017-12-23T23:20:32.240Z,17.30
2017-12-23T23:23:07.246Z,20.60
2017-12-23T23:25:42.269Z,18.33
2017-12-23T23:28:17.186Z,22.97
2017-12-23T23:30:52.298Z,21.47
2017-12-23T23:33:27.372Z,19.77
2017-12-23T23:36:02.586Z,26.43
2017-12-23T23:38:37.514Z,29.70
2017-12-23T23:41:12.709Z,26.40
2017-12-23T23:43:47.793Z,26.90
2017-12-23T23:46:22.794Z,27.70
2017-12-23T23:48:57.898Z,29.33
2017-12-23T23:51:32.892Z,25.43
2017-12-23T23:54:07.498Z,24.43
2017-12-23T23:56:42.624Z,15.83
2017-12-23T23:59:17.965Z,23.73
